Saturday, May 26, 2018, 2:31 AM EDT
Back to Local

KDDH, Bennington Morse State Airport

Location: Bennington, VT, United States Lat: 42.883
Local Time: 2:31 AM EDT ( 6:31 GMT) Lon: -73.25
Time Zone: US/Eastern Elev: 826 ft

Show me the last for .
Show Decoded

2018-05-26 01:54 METAR KDDH 260554Z AUTO 00000KT 10SM BKN080 OVC090 18/13 A2978 RMK AO2 SLP078
                 T01780133 10233 20161 56004 =
2018-05-26 00:54 METAR KDDH 260454Z AUTO 36003KT 10SM BKN085 OVC110 18/14 A2979 RMK AO2 SLP080
                 T01830139 402890078 =
2018-05-25 23:54 METAR KDDH 260354Z AUTO 00000KT 10SM OVC080 18/14 A2979 RMK AO2 SLP082 T01780144
                 =
2018-05-25 22:54 METAR KDDH 260254Z AUTO 00000KT 10SM OVC090 18/13 A2979 RMK AO2 SLP084 T01830128
                 58002 =
2018-05-25 21:54 METAR KDDH 260154Z AUTO 18004KT 10SM CLR 16/13 A2980 RMK AO2 SLP087 T01610128 =
2018-05-25 20:54 METAR KDDH 260054Z AUTO 20003KT 10SM SCT110 19/13 A2980 RMK AO2 SLP084 T01940128
                 =
2018-05-25 19:54 METAR KDDH 252354Z AUTO 00000KT 10SM OVC110 23/14 A2980 RMK AO2 SLP086 T02280144
                 10289 20228 55003 =
2018-05-25 18:54 METAR KDDH 252254Z AUTO 00000KT 10SM OVC090 26/09 A2979 RMK AO2 SLP085 T02610094
                 =
2018-05-25 17:54 METAR KDDH 252154Z AUTO 29005KT 10SM OVC100 27/09 A2980 RMK AO2 SLP086 T02670089
                 =
2018-05-25 16:54 METAR KDDH 252054Z AUTO 25008G17KT 10SM SCT100 28/09 A2981 RMK AO2 SLP091
                 T02780094 56018 =
2018-05-25 15:54 METAR KDDH 251954Z AUTO VRB04G15KT 9SM SCT110 28/10 A2982 RMK AO2 SLP093
                 T02830100 =
2018-05-25 15:42 METAR KDDH 251942Z AUTO 25007G18KT 230V300 8SM FEW003 SCT110 28/09 A2982 RMK AO2
                 T02830094 =
2018-05-25 14:54 METAR KDDH 251854Z AUTO 29012G17KT 10SM CLR 28/10 A2984 RMK AO2 SLP100 T02780100
                 =
2018-05-25 14:40 METAR KDDH 251840Z AUTO 30008G16KT 9SM FEW004 28/10 A2984 RMK AO2 T02780100 =
2018-05-25 13:54 METAR KDDH 251754Z AUTO 28008G20KT 210V320 10SM CLR 27/08 A2986 RMK AO2 SLP109
                 T02720083 10272 20161 58026 =
2018-05-25 12:54 METAR KDDH 251654Z AUTO 10SM CLR 27/10 A2989 RMK AO2 SLP117 T02670100 =
2018-05-25 11:54 METAR KDDH 251554Z AUTO 26011G16KT 10SM CLR 25/10 A2992 RMK AO2 SLP128 T02500100
                 =
2018-05-25 10:54 METAR KDDH 251454Z AUTO VRB06KT 10SM CLR 24/10 A2994 RMK AO2 SLP135 T02390100
                 58017 =
2018-05-25 09:54 METAR KDDH 251354Z AUTO 27008KT 10SM CLR 23/09 A2996 RMK AO2 SLP141 T02280089 =
2018-05-25 08:54 METAR KDDH 251254Z AUTO 23007KT 10SM CLR 21/09 A2998 RMK AO2 SLP147 T02110094 =
2018-05-25 07:54 METAR KDDH 251154Z AUTO 00000KT 10SM CLR 16/12 A2999 RMK AO2 SLP153 T01610117
                 10161 20078 58001 =
2018-05-25 06:54 METAR KDDH 251054Z AUTO 00000KT 10SM CLR 09/08 A3000 RMK AO2 SLP158 T00940078 =
2018-05-25 05:54 METAR KDDH 250954Z AUTO 00000KT 9SM CLR 08/07 A3000 RMK AO2 SLP158 T00830072 =
2018-05-25 04:54 METAR KDDH 250854Z AUTO 00000KT 10SM CLR 09/07 A3000 RMK AO2 SLP155 T00890072
                 56008 =
2018-05-25 03:54 METAR KDDH 250754Z AUTO 00000KT 10SM CLR 09/07 A3000 RMK AO2 SLP156 T00940072 =
2018-05-25 02:54 METAR KDDH 250654Z AUTO 00000KT 10SM CLR 09/07 A3000 RMK AO2 SLP158 T00940072 =

Support USWX by starting your Amazon purchase here.